Marlinton, West Virginia
Current Conditions -  °F | °C
As of 5:55 AM on Wednesday 22 Oct 2014 (Local Time) from KHSP Reporting Station
Overcast Overcast  
Wind Chill: -1°   Ceiling: 600
Heat Index:   Visibility: 10mi
Dew Point:   Wind: 16mph
Humidity: 94%   Direction: 310°NW
Pressure: 29.94"   Gusts: 25mph
Location:  38.22°N, 80.09°W
Report Text: KHSP 220955Z AUTO 31014G22KT 10SM OVC006 04/03 A2994 RMK AO2 T00360027
Loading
Personal Weather Stations






























Interactive Weather Map
Tropical Storm Tracking
New forecast layout! Learn more

10-Day Weather Forecast

Advertisements
Track Severe Weather on mobile